ZKJEE NZHK-NZGM

Flight info

Callsign ZKJEE
Flight time 0h 9m
Altitude 3000
Route PAROA
Aircraft DHC6/L-SDFGR/C

Departure

Time 2026-04-29 05:53
Airport Hokitika Airfield (NZHK)

Arrival

Time 2026-04-29 06:03
Airport Greymouth Airport (NZGM)
Time Latitude Longitude Altitude Speed Heading
2026-04-29 05:49 -42.70757 170.99255 155 ft 0 kts 237°
2026-04-29 05:52 -42.70786 170.99194 155 ft 39 kts 237°
2026-04-29 05:52 -42.71087 170.98565 156 ft 110 kts 237°
2026-04-29 05:53 -42.71550 170.97624 362 ft 120 kts 235°
2026-04-29 05:53 -42.72030 170.96726 705 ft 116 kts 233°
2026-04-29 05:53 -42.72516 170.95878 1060 ft 112 kts 234°
2026-04-29 05:53 -42.72998 170.95037 1371 ft 117 kts 238°
2026-04-29 05:54 -42.73082 170.93932 1700 ft 124 kts 292°
2026-04-29 05:54 -42.72398 170.93248 2058 ft 132 kts 348°
2026-04-29 05:54 -42.71505 170.93674 2428 ft 149 kts 38°
2026-04-29 05:54 -42.70949 170.94876 2812 ft 155 kts 59°
2026-04-29 05:55 -42.70447 170.96225 2971 ft 167 kts 60°
2026-04-29 05:55 -42.69883 170.97662 3012 ft 180 kts 58°
2026-04-29 05:55 -42.69213 170.99184 3012 ft 189 kts 54°
2026-04-29 05:55 -42.68452 171.00626 3006 ft 193 kts 47°
2026-04-29 05:56 -42.67542 171.01987 3006 ft 194 kts 40°
2026-04-29 05:56 -42.66528 171.03173 3004 ft 193 kts 33°
2026-04-29 05:56 -42.65436 171.04246 3005 ft 193 kts 29°
2026-04-29 05:56 -42.64326 171.05268 3001 ft 193 kts 28°
2026-04-29 05:57 -42.63215 171.06325 2998 ft 194 kts 30°
2026-04-29 05:57 -42.62126 171.07400 2996 ft 195 kts 32°
2026-04-29 05:57 -42.61093 171.08580 2998 ft 196 kts 37°
2026-04-29 05:57 -42.60074 171.09825 2996 ft 196 kts 37°
2026-04-29 05:58 -42.59043 171.11076 2995 ft 196 kts 37°
2026-04-29 05:58 -42.58034 171.12272 2982 ft 197 kts 36°
2026-04-29 05:58 -42.57024 171.13461 2734 ft 186 kts 37°
2026-04-29 05:58 -42.56064 171.14589 2475 ft 175 kts 33°
2026-04-29 05:59 -42.55012 171.15197 2220 ft 159 kts
2026-04-29 05:59 -42.53932 171.15396 1975 ft 153 kts
2026-04-29 05:59 -42.52885 171.15599 1718 ft 150 kts
2026-04-29 05:59 -42.51881 171.15872 1472 ft 149 kts
2026-04-29 06:00 -42.50869 171.16191 1219 ft 148 kts
2026-04-29 06:00 -42.49863 171.16499 964 ft 148 kts
2026-04-29 06:00 -42.48867 171.16836 714 ft 147 kts 19°
2026-04-29 06:00 -42.48858 171.16841 712 ft 147 kts 20°
2026-04-29 06:02 -42.48033 171.17449 483 ft 141 kts 33°
2026-04-29 06:02 -42.47334 171.18138 314 ft 107 kts 37°
2026-04-29 06:02 -42.46785 171.18582 119 ft 80 kts 28°
2026-04-29 06:03 -42.46380 171.18892 24 ft 46 kts 31°
2026-04-29 06:03 -42.46288 171.18972 24 ft 0 kts 35°